sensor_id;sensor_type;location;lat;lon;timestamp;pressure;altitude;pressure_sealevel;temperature
44429;BMP180;30134;47.866;-4.222;2023-11-19T00:00:54;101329.00;;;23.90
44429;BMP180;30134;47.866;-4.222;2023-11-19T00:03:21;101322.00;;;23.90
44429;BMP180;30134;47.866;-4.222;2023-11-19T00:05:47;101328.00;;;23.90
44429;BMP180;30134;47.866;-4.222;2023-11-19T00:08:16;101329.00;;;23.90
44429;BMP180;30134;47.866;-4.222;2023-11-19T00:10:42;101336.00;;;23.90
44429;BMP180;30134;47.866;-4.222;2023-11-19T00:13:09;101339.00;;;23.90
44429;BMP180;30134;47.866;-4.222;2023-11-19T00:15:39;101341.00;;;23.90
44429;BMP180;30134;47.866;-4.222;2023-11-19T00:18:05;101334.00;;;23.90
44429;BMP180;30134;47.866;-4.222;2023-11-19T00:20:33;101329.00;;;23.90
44429;BMP180;30134;47.866;-4.222;2023-11-19T00:23:05;101330.00;;;23.80
44429;BMP180;30134;47.866;-4.222;2023-11-19T00:25:31;101324.00;;;23.90
44429;BMP180;30134;47.866;-4.222;2023-11-19T00:28:00;101321.00;;;23.90
44429;BMP180;30134;47.866;-4.222;2023-11-19T00:30:27;101328.00;;;23.80
44429;BMP180;30134;47.866;-4.222;2023-11-19T00:32:53;101327.00;;;23.90
44429;BMP180;30134;47.866;-4.222;2023-11-19T00:35:19;101322.00;;;23.90
44429;BMP180;30134;47.866;-4.222;2023-11-19T00:37:45;101323.00;;;23.90
44429;BMP180;30134;47.866;-4.222;2023-11-19T00:40:13;101320.00;;;23.90
44429;BMP180;30134;47.866;-4.222;2023-11-19T00:42:41;101326.00;;;23.90
44429;BMP180;30134;47.866;-4.222;2023-11-19T00:45:09;101325.00;;;23.90
44429;BMP180;30134;47.866;-4.222;2023-11-19T00:47:38;101325.00;;;23.90
44429;BMP180;30134;47.866;-4.222;2023-11-19T00:50:05;101327.00;;;23.90
44429;BMP180;30134;47.866;-4.222;2023-11-19T00:52:31;101327.00;;;23.90
44429;BMP180;30134;47.866;-4.222;2023-11-19T00:54:57;101314.00;;;23.90
44429;BMP180;30134;47.866;-4.222;2023-11-19T00:57:23;101322.00;;;23.90
44429;BMP180;30134;47.866;-4.222;2023-11-19T00:59:50;101315.00;;;23.90
44429;BMP180;30134;47.866;-4.222;2023-11-19T01:02:19;101317.00;;;23.90
44429;BMP180;30134;47.866;-4.222;2023-11-19T01:04:45;101329.00;;;23.90
44429;BMP180;30134;47.866;-4.222;2023-11-19T01:07:11;101324.00;;;23.80
44429;BMP180;30134;47.866;-4.222;2023-11-19T01:09:42;101326.00;;;23.90
44429;BMP180;30134;47.866;-4.222;2023-11-19T01:12:09;101316.00;;;23.90
44429;BMP180;30134;47.866;-4.222;2023-11-19T01:14:36;101315.00;;;23.80
44429;BMP180;30134;47.866;-4.222;2023-11-19T01:17:03;101306.00;;;23.90
44429;BMP180;30134;47.866;-4.222;2023-11-19T01:19:30;101307.00;;;23.90
44429;BMP180;30134;47.866;-4.222;2023-11-19T01:21:56;101309.00;;;23.80
44429;BMP180;30134;47.866;-4.222;2023-11-19T01:24:22;101306.00;;;23.90
44429;BMP180;30134;47.866;-4.222;2023-11-19T01:26:48;101305.00;;;23.90
44429;BMP180;30134;47.866;-4.222;2023-11-19T01:29:15;101316.00;;;23.90
44429;BMP180;30134;47.866;-4.222;2023-11-19T01:31:46;101309.00;;;23.90
44429;BMP180;30134;47.866;-4.222;2023-11-19T01:34:17;101322.00;;;23.90
44429;BMP180;30134;47.866;-4.222;2023-11-19T01:36:43;101312.00;;;23.90
44429;BMP180;30134;47.866;-4.222;2023-11-19T01:39:09;101311.00;;;23.90
44429;BMP180;30134;47.866;-4.222;2023-11-19T01:41:36;101311.00;;;23.90
44429;BMP180;30134;47.866;-4.222;2023-11-19T01:44:03;101299.00;;;23.90
44429;BMP180;30134;47.866;-4.222;2023-11-19T01:46:31;101310.00;;;23.90
44429;BMP180;30134;47.866;-4.222;2023-11-19T01:49:00;101311.00;;;23.90
44429;BMP180;30134;47.866;-4.222;2023-11-19T01:51:28;101312.00;;;23.90
44429;BMP180;30134;47.866;-4.222;2023-11-19T01:53:55;101307.00;;;23.90
44429;BMP180;30134;47.866;-4.222;2023-11-19T01:56:23;101305.00;;;23.90
44429;BMP180;30134;47.866;-4.222;2023-11-19T01:58:50;101306.00;;;23.90
44429;BMP180;30134;47.866;-4.222;2023-11-19T02:01:17;101308.00;;;23.80
44429;BMP180;30134;47.866;-4.222;2023-11-19T02:03:43;101312.00;;;23.80
44429;BMP180;30134;47.866;-4.222;2023-11-19T02:06:09;101306.00;;;23.80
44429;BMP180;30134;47.866;-4.222;2023-11-19T02:08:36;101306.00;;;23.90
44429;BMP180;30134;47.866;-4.222;2023-11-19T02:11:05;101307.00;;;23.90
44429;BMP180;30134;47.866;-4.222;2023-11-19T02:13:32;101306.00;;;23.90
44429;BMP180;30134;47.866;-4.222;2023-11-19T02:15:58;101302.00;;;23.80
44429;BMP180;30134;47.866;-4.222;2023-11-19T02:18:27;101312.00;;;23.90
44429;BMP180;30134;47.866;-4.222;2023-11-19T02:20:58;101306.00;;;23.90
44429;BMP180;30134;47.866;-4.222;2023-11-19T02:23:27;101297.00;;;23.80
44429;BMP180;30134;47.866;-4.222;2023-11-19T02:26:15;101291.00;;;23.80
44429;BMP180;30134;47.866;-4.222;2023-11-19T02:28:44;101301.00;;;23.80
44429;BMP180;30134;47.866;-4.222;2023-11-19T02:31:11;101304.00;;;23.80
44429;BMP180;30134;47.866;-4.222;2023-11-19T02:33:38;101296.00;;;23.80
44429;BMP180;30134;47.866;-4.222;2023-11-19T02:36:08;101301.00;;;23.80
44429;BMP180;30134;47.866;-4.222;2023-11-19T02:38:35;101299.00;;;23.80
44429;BMP180;30134;47.866;-4.222;2023-11-19T02:41:06;101299.00;;;23.80
44429;BMP180;30134;47.866;-4.222;2023-11-19T02:43:37;101300.00;;;23.80
44429;BMP180;30134;47.866;-4.222;2023-11-19T02:46:04;101304.00;;;23.80
44429;BMP180;30134;47.866;-4.222;2023-11-19T02:48:34;101309.00;;;23.80
44429;BMP180;30134;47.866;-4.222;2023-11-19T02:51:05;101311.00;;;23.90
44429;BMP180;30134;47.866;-4.222;2023-11-19T02:53:36;101322.00;;;23.80
44429;BMP180;30134;47.866;-4.222;2023-11-19T02:56:04;101328.00;;;23.80
44429;BMP180;30134;47.866;-4.222;2023-11-19T02:58:51;101321.00;;;23.80
44429;BMP180;30134;47.866;-4.222;2023-11-19T03:01:26;101321.00;;;23.80
44429;BMP180;30134;47.866;-4.222;2023-11-19T03:04:00;101316.00;;;23.80
44429;BMP180;30134;47.866;-4.222;2023-11-19T03:06:27;101323.00;;;23.70
44429;BMP180;30134;47.866;-4.222;2023-11-19T03:08:55;101318.00;;;23.80
44429;BMP180;30134;47.866;-4.222;2023-11-19T03:11:21;101315.00;;;23.80
44429;BMP180;30134;47.866;-4.222;2023-11-19T03:13:48;101311.00;;;23.80
44429;BMP180;30134;47.866;-4.222;2023-11-19T03:16:14;101306.00;;;23.80
44429;BMP180;30134;47.866;-4.222;2023-11-19T03:18:40;101312.00;;;23.80
44429;BMP180;30134;47.866;-4.222;2023-11-19T03:21:07;101305.00;;;23.80
44429;BMP180;30134;47.866;-4.222;2023-11-19T03:23:37;101305.00;;;23.80
44429;BMP180;30134;47.866;-4.222;2023-11-19T03:26:04;101300.00;;;23.70
44429;BMP180;30134;47.866;-4.222;2023-11-19T03:28:31;101294.00;;;23.70
44429;BMP180;30134;47.866;-4.222;2023-11-19T03:30:58;101301.00;;;23.70
44429;BMP180;30134;47.866;-4.222;2023-11-19T03:33:24;101295.00;;;23.70
44429;BMP180;30134;47.866;-4.222;2023-11-19T03:35:54;101296.00;;;23.70
44429;BMP180;30134;47.866;-4.222;2023-11-19T03:38:20;101294.00;;;23.70
44429;BMP180;30134;47.866;-4.222;2023-11-19T03:40:46;101290.00;;;23.70
44429;BMP180;30134;47.866;-4.222;2023-11-19T03:43:12;101297.00;;;23.70
44429;BMP180;30134;47.866;-4.222;2023-11-19T03:45:38;101288.00;;;23.70
44429;BMP180;30134;47.866;-4.222;2023-11-19T03:48:05;101294.00;;;23.70
44429;BMP180;30134;47.866;-4.222;2023-11-19T03:50:34;101291.00;;;23.70
44429;BMP180;30134;47.866;-4.222;2023-11-19T03:53:00;101278.00;;;23.70
44429;BMP180;30134;47.866;-4.222;2023-11-19T03:55:28;101296.00;;;23.70
44429;BMP180;30134;47.866;-4.222;2023-11-19T03:57:55;101300.00;;;23.70
44429;BMP180;30134;47.866;-4.222;2023-11-19T04:00:22;101294.00;;;23.70
44429;BMP180;30134;47.866;-4.222;2023-11-19T04:02:48;101295.00;;;23.70
44429;BMP180;30134;47.866;-4.222;2023-11-19T04:05:14;101299.00;;;23.60
44429;BMP180;30134;47.866;-4.222;2023-11-19T04:07:40;101299.00;;;23.60
44429;BMP180;30134;47.866;-4.222;2023-11-19T04:10:07;101299.00;;;23.70
44429;BMP180;30134;47.866;-4.222;2023-11-19T04:12:33;101297.00;;;23.70
44429;BMP180;30134;47.866;-4.222;2023-11-19T04:15:00;101295.00;;;23.60
44429;BMP180;30134;47.866;-4.222;2023-11-19T04:17:26;101294.00;;;23.70
44429;BMP180;30134;47.866;-4.222;2023-11-19T04:19:52;101301.00;;;23.70
44429;BMP180;30134;47.866;-4.222;2023-11-19T04:22:18;101300.00;;;23.70
44429;BMP180;30134;47.866;-4.222;2023-11-19T04:24:44;101300.00;;;23.60
44429;BMP180;30134;47.866;-4.222;2023-11-19T04:27:14;101300.00;;;23.60
44429;BMP180;30134;47.866;-4.222;2023-11-19T04:29:46;101307.00;;;23.60
44429;BMP180;30134;47.866;-4.222;2023-11-19T04:32:12;101293.00;;;23.60
44429;BMP180;30134;47.866;-4.222;2023-11-19T04:34:40;101298.00;;;23.50
44429;BMP180;30134;47.866;-4.222;2023-11-19T04:37:07;101306.00;;;23.60
44429;BMP180;30134;47.866;-4.222;2023-11-19T04:39:33;101308.00;;;23.60
44429;BMP180;30134;47.866;-4.222;2023-11-19T04:41:59;101310.00;;;23.50
44429;BMP180;30134;47.866;-4.222;2023-11-19T04:44:25;101313.00;;;23.60
44429;BMP180;30134;47.866;-4.222;2023-11-19T04:46:51;101311.00;;;23.60
44429;BMP180;30134;47.866;-4.222;2023-11-19T04:49:17;101309.00;;;23.60
44429;BMP180;30134;47.866;-4.222;2023-11-19T04:51:45;101310.00;;;23.60
44429;BMP180;30134;47.866;-4.222;2023-11-19T04:54:13;101303.00;;;23.60
44429;BMP180;30134;47.866;-4.222;2023-11-19T04:56:40;101306.00;;;23.60
44429;BMP180;30134;47.866;-4.222;2023-11-19T04:59:07;101310.00;;;23.50
44429;BMP180;30134;47.866;-4.222;2023-11-19T05:01:33;101309.00;;;23.50
44429;BMP180;30134;47.866;-4.222;2023-11-19T05:04:00;101317.00;;;23.60
44429;BMP180;30134;47.866;-4.222;2023-11-19T05:06:33;101322.00;;;23.60
44429;BMP180;30134;47.866;-4.222;2023-11-19T05:09:01;101316.00;;;23.60
44429;BMP180;30134;47.866;-4.222;2023-11-19T05:11:33;101311.00;;;23.60
44429;BMP180;30134;47.866;-4.222;2023-11-19T05:14:00;101318.00;;;23.50
44429;BMP180;30134;47.866;-4.222;2023-11-19T05:16:28;101314.00;;;23.50
44429;BMP180;30134;47.866;-4.222;2023-11-19T05:18:54;101326.00;;;23.60
44429;BMP180;30134;47.866;-4.222;2023-11-19T05:21:20;101317.00;;;23.60
44429;BMP180;30134;47.866;-4.222;2023-11-19T05:23:47;101318.00;;;23.60
44429;BMP180;30134;47.866;-4.222;2023-11-19T05:26:20;101321.00;;;23.50
44429;BMP180;30134;47.866;-4.222;2023-11-19T05:28:47;101322.00;;;23.50
44429;BMP180;30134;47.866;-4.222;2023-11-19T05:31:13;101316.00;;;23.50
44429;BMP180;30134;47.866;-4.222;2023-11-19T05:33:40;101315.00;;;23.50
44429;BMP180;30134;47.866;-4.222;2023-11-19T05:36:06;101315.00;;;23.50
44429;BMP180;30134;47.866;-4.222;2023-11-19T05:38:35;101313.00;;;23.50
44429;BMP180;30134;47.866;-4.222;2023-11-19T05:41:03;101312.00;;;23.50
44429;BMP180;30134;47.866;-4.222;2023-11-19T05:43:29;101311.00;;;23.60
44429;BMP180;30134;47.866;-4.222;2023-11-19T05:45:55;101313.00;;;23.60
44429;BMP180;30134;47.866;-4.222;2023-11-19T05:48:22;101311.00;;;23.60
44429;BMP180;30134;47.866;-4.222;2023-11-19T05:50:48;101303.00;;;23.60
44429;BMP180;30134;47.866;-4.222;2023-11-19T05:53:16;101309.00;;;23.60
44429;BMP180;30134;47.866;-4.222;2023-11-19T05:55:46;101310.00;;;23.50
44429;BMP180;30134;47.866;-4.222;2023-11-19T05:58:27;101313.00;;;23.50
44429;BMP180;30134;47.866;-4.222;2023-11-19T06:00:58;101315.00;;;23.50
44429;BMP180;30134;47.866;-4.222;2023-11-19T06:03:27;101318.00;;;23.50
44429;BMP180;30134;47.866;-4.222;2023-11-19T06:05:53;101318.00;;;23.50
44429;BMP180;30134;47.866;-4.222;2023-11-19T06:08:22;101318.00;;;23.50
44429;BMP180;30134;47.866;-4.222;2023-11-19T06:10:49;101324.00;;;23.50
44429;BMP180;30134;47.866;-4.222;2023-11-19T06:13:23;101322.00;;;23.50
44429;BMP180;30134;47.866;-4.222;2023-11-19T06:15:49;101318.00;;;23.50
44429;BMP180;30134;47.866;-4.222;2023-11-19T06:18:16;101324.00;;;23.50
44429;BMP180;30134;47.866;-4.222;2023-11-19T06:20:45;101322.00;;;23.50
44429;BMP180;30134;47.866;-4.222;2023-11-19T06:23:11;101326.00;;;23.60
44429;BMP180;30134;47.866;-4.222;2023-11-19T06:25:39;101325.00;;;23.50
44429;BMP180;30134;47.866;-4.222;2023-11-19T06:28:05;101344.00;;;23.50
44429;BMP180;30134;47.866;-4.222;2023-11-19T06:30:31;101337.00;;;23.50
44429;BMP180;30134;47.866;-4.222;2023-11-19T06:32:58;101342.00;;;23.50
44429;BMP180;30134;47.866;-4.222;2023-11-19T06:35:25;101346.00;;;23.50
44429;BMP180;30134;47.866;-4.222;2023-11-19T06:37:52;101347.00;;;23.50
44429;BMP180;30134;47.866;-4.222;2023-11-19T06:40:18;101342.00;;;23.50
44429;BMP180;30134;47.866;-4.222;2023-11-19T06:42:47;101351.00;;;23.50
44429;BMP180;30134;47.866;-4.222;2023-11-19T06:45:13;101348.00;;;23.50
44429;BMP180;30134;47.866;-4.222;2023-11-19T06:47:40;101351.00;;;23.50
44429;BMP180;30134;47.866;-4.222;2023-11-19T06:50:07;101358.00;;;23.50
44429;BMP180;30134;47.866;-4.222;2023-11-19T06:52:35;101351.00;;;23.50
44429;BMP180;30134;47.866;-4.222;2023-11-19T06:55:04;101352.00;;;23.50
44429;BMP180;30134;47.866;-4.222;2023-11-19T06:57:30;101355.00;;;23.50
44429;BMP180;30134;47.866;-4.222;2023-11-19T06:59:58;101359.00;;;23.50
44429;BMP180;30134;47.866;-4.222;2023-11-19T07:02:27;101361.00;;;23.50
44429;BMP180;30134;47.866;-4.222;2023-11-19T07:04:56;101358.00;;;23.50
44429;BMP180;30134;47.866;-4.222;2023-11-19T07:07:22;101355.00;;;23.50
44429;BMP180;30134;47.866;-4.222;2023-11-19T07:09:49;101346.00;;;23.40
44429;BMP180;30134;47.866;-4.222;2023-11-19T07:12:15;101348.00;;;23.50
44429;BMP180;30134;47.866;-4.222;2023-11-19T07:14:41;101348.00;;;23.50
44429;BMP180;30134;47.866;-4.222;2023-11-19T07:17:08;101343.00;;;23.60
44429;BMP180;30134;47.866;-4.222;2023-11-19T07:19:38;101343.00;;;23.60
44429;BMP180;30134;47.866;-4.222;2023-11-19T07:22:05;101350.00;;;23.70
44429;BMP180;30134;47.866;-4.222;2023-11-19T07:24:39;101351.00;;;23.60
44429;BMP180;30134;47.866;-4.222;2023-11-19T07:27:07;101344.00;;;23.60
44429;BMP180;30134;47.866;-4.222;2023-11-19T07:29:35;101355.00;;;23.60
44429;BMP180;30134;47.866;-4.222;2023-11-19T07:32:02;101370.00;;;23.60
44429;BMP180;30134;47.866;-4.222;2023-11-19T07:34:28;101358.00;;;23.60
44429;BMP180;30134;47.866;-4.222;2023-11-19T07:36:55;101371.00;;;23.60
44429;BMP180;30134;47.866;-4.222;2023-11-19T07:39:28;101364.00;;;23.60
44429;BMP180;30134;47.866;-4.222;2023-11-19T07:41:55;101375.00;;;23.60
44429;BMP180;30134;47.866;-4.222;2023-11-19T07:44:21;101384.00;;;23.60
44429;BMP180;30134;47.866;-4.222;2023-11-19T07:46:48;101377.00;;;23.70
44429;BMP180;30134;47.866;-4.222;2023-11-19T07:49:14;101374.00;;;23.70
44429;BMP180;30134;47.866;-4.222;2023-11-19T07:51:41;101378.00;;;23.70
44429;BMP180;30134;47.866;-4.222;2023-11-19T07:54:07;101377.00;;;23.70
44429;BMP180;30134;47.866;-4.222;2023-11-19T07:56:34;101373.00;;;23.60
44429;BMP180;30134;47.866;-4.222;2023-11-19T07:59:02;101383.00;;;23.70
44429;BMP180;30134;47.866;-4.222;2023-11-19T08:01:29;101381.00;;;23.60
44429;BMP180;30134;47.866;-4.222;2023-11-19T08:03:56;101383.00;;;23.60
44429;BMP180;30134;47.866;-4.222;2023-11-19T08:06:23;101386.00;;;23.60
44429;BMP180;30134;47.866;-4.222;2023-11-19T08:08:49;101384.00;;;23.70
44429;BMP180;30134;47.866;-4.222;2023-11-19T08:11:15;101393.00;;;23.60
44429;BMP180;30134;47.866;-4.222;2023-11-19T08:13:42;101396.00;;;23.60
44429;BMP180;30134;47.866;-4.222;2023-11-19T08:16:08;101390.00;;;23.70
44429;BMP180;30134;47.866;-4.222;2023-11-19T08:18:35;101397.00;;;23.60
44429;BMP180;30134;47.866;-4.222;2023-11-19T08:21:02;101388.00;;;23.70
44429;BMP180;30134;47.866;-4.222;2023-11-19T08:23:30;101393.00;;;23.70
44429;BMP180;30134;47.866;-4.222;2023-11-19T08:25:56;101389.00;;;23.60
44429;BMP180;30134;47.866;-4.222;2023-11-19T08:28:23;101392.00;;;23.70
44429;BMP180;30134;47.866;-4.222;2023-11-19T08:30:49;101398.00;;;23.70
44429;BMP180;30134;47.866;-4.222;2023-11-19T08:33:16;101403.00;;;23.70
44429;BMP180;30134;47.866;-4.222;2023-11-19T08:35:45;101407.00;;;23.60
44429;BMP180;30134;47.866;-4.222;2023-11-19T08:38:12;101409.00;;;23.30
44429;BMP180;30134;47.866;-4.222;2023-11-19T08:40:42;101411.00;;;23.20
44429;BMP180;30134;47.866;-4.222;2023-11-19T08:43:12;101406.00;;;23.50
44429;BMP180;30134;47.866;-4.222;2023-11-19T08:45:41;101422.00;;;23.50
44429;BMP180;30134;47.866;-4.222;2023-11-19T08:48:07;101415.00;;;23.50
44429;BMP180;30134;47.866;-4.222;2023-11-19T08:50:37;101405.00;;;23.40
44429;BMP180;30134;47.866;-4.222;2023-11-19T08:53:06;101397.00;;;23.40
44429;BMP180;30134;47.866;-4.222;2023-11-19T08:55:42;101406.00;;;23.30
44429;BMP180;30134;47.866;-4.222;2023-11-19T08:58:09;101409.00;;;23.40
44429;BMP180;30134;47.866;-4.222;2023-11-19T09:00:35;101408.00;;;23.40
44429;BMP180;30134;47.866;-4.222;2023-11-19T09:03:04;101398.00;;;23.40
44429;BMP180;30134;47.866;-4.222;2023-11-19T09:05:31;101408.00;;;23.40
44429;BMP180;30134;47.866;-4.222;2023-11-19T09:08:01;101417.00;;;23.40
44429;BMP180;30134;47.866;-4.222;2023-11-19T09:10:28;101421.00;;;23.30
44429;BMP180;30134;47.866;-4.222;2023-11-19T09:12:57;101425.00;;;23.30
44429;BMP180;30134;47.866;-4.222;2023-11-19T09:15:24;101428.00;;;23.40
44429;BMP180;30134;47.866;-4.222;2023-11-19T09:17:55;101420.00;;;23.40
44429;BMP180;30134;47.866;-4.222;2023-11-19T09:20:22;101432.00;;;23.30
44429;BMP180;30134;47.866;-4.222;2023-11-19T09:22:52;101434.00;;;23.40
44429;BMP180;30134;47.866;-4.222;2023-11-19T09:25:18;101432.00;;;23.40
44429;BMP180;30134;47.866;-4.222;2023-11-19T09:27:44;101438.00;;;23.40
44429;BMP180;30134;47.866;-4.222;2023-11-19T09:30:12;101437.00;;;23.40
44429;BMP180;30134;47.866;-4.222;2023-11-19T09:32:38;101441.00;;;23.30
44429;BMP180;30134;47.866;-4.222;2023-11-19T09:35:05;101434.00;;;23.40
44429;BMP180;30134;47.866;-4.222;2023-11-19T09:37:32;101438.00;;;23.40
44429;BMP180;30134;47.866;-4.222;2023-11-19T09:40:02;101438.00;;;23.30
44429;BMP180;30134;47.866;-4.222;2023-11-19T09:42:30;101446.00;;;23.20
44429;BMP180;30134;47.866;-4.222;2023-11-19T09:44:59;101447.00;;;23.30
44429;BMP180;30134;47.866;-4.222;2023-11-19T09:47:27;101437.00;;;23.30
44429;BMP180;30134;47.866;-4.222;2023-11-19T09:49:53;101433.00;;;23.40
44429;BMP180;30134;47.866;-4.222;2023-11-19T09:52:20;101435.00;;;23.30
44429;BMP180;30134;47.866;-4.222;2023-11-19T09:54:46;101435.00;;;23.30
44429;BMP180;30134;47.866;-4.222;2023-11-19T09:57:12;101443.00;;;23.30
44429;BMP180;30134;47.866;-4.222;2023-11-19T09:59:41;101442.00;;;23.30
44429;BMP180;30134;47.866;-4.222;2023-11-19T10:02:08;101441.00;;;23.30
44429;BMP180;30134;47.866;-4.222;2023-11-19T10:04:36;101444.00;;;23.30
44429;BMP180;30134;47.866;-4.222;2023-11-19T10:07:03;101453.00;;;23.30
44429;BMP180;30134;47.866;-4.222;2023-11-19T10:09:30;101464.00;;;23.30
44429;BMP180;30134;47.866;-4.222;2023-11-19T10:11:56;101450.00;;;23.30
44429;BMP180;30134;47.866;-4.222;2023-11-19T10:14:24;101445.00;;;23.30
44429;BMP180;30134;47.866;-4.222;2023-11-19T10:16:54;101437.00;;;23.30
44429;BMP180;30134;47.866;-4.222;2023-11-19T10:19:28;101437.00;;;23.30
44429;BMP180;30134;47.866;-4.222;2023-11-19T10:22:05;101437.00;;;23.30
44429;BMP180;30134;47.866;-4.222;2023-11-19T10:24:33;101430.00;;;23.30
44429;BMP180;30134;47.866;-4.222;2023-11-19T10:27:00;101449.00;;;23.20
44429;BMP180;30134;47.866;-4.222;2023-11-19T10:29:32;101443.00;;;23.20
44429;BMP180;30134;47.866;-4.222;2023-11-19T10:32:01;101448.00;;;23.20
44429;BMP180;30134;47.866;-4.222;2023-11-19T10:34:28;101450.00;;;23.20
44429;BMP180;30134;47.866;-4.222;2023-11-19T10:36:56;101458.00;;;23.30
44429;BMP180;30134;47.866;-4.222;2023-11-19T10:39:22;101458.00;;;23.20
44429;BMP180;30134;47.866;-4.222;2023-11-19T10:41:52;101458.00;;;23.30
44429;BMP180;30134;47.866;-4.222;2023-11-19T10:44:34;101471.00;;;23.20
44429;BMP180;30134;47.866;-4.222;2023-11-19T10:47:08;101469.00;;;23.20
44429;BMP180;30134;47.866;-4.222;2023-11-19T10:49:36;101459.00;;;23.30
44429;BMP180;30134;47.866;-4.222;2023-11-19T10:52:04;101481.00;;;23.20
44429;BMP180;30134;47.866;-4.222;2023-11-19T10:54:33;101460.00;;;23.20
44429;BMP180;30134;47.866;-4.222;2023-11-19T10:57:02;101477.00;;;23.20
44429;BMP180;30134;47.866;-4.222;2023-11-19T10:59:31;101475.00;;;23.30
44429;BMP180;30134;47.866;-4.222;2023-11-19T11:02:03;101472.00;;;23.20
44429;BMP180;30134;47.866;-4.222;2023-11-19T11:04:40;101465.00;;;23.20
44429;BMP180;30134;47.866;-4.222;2023-11-19T11:07:15;101476.00;;;23.30
44429;BMP180;30134;47.866;-4.222;2023-11-19T11:09:47;101468.00;;;23.40
44429;BMP180;30134;47.866;-4.222;2023-11-19T11:12:21;101477.00;;;23.20
44429;BMP180;30134;47.866;-4.222;2023-11-19T11:14:52;101477.00;;;23.30
44429;BMP180;30134;47.866;-4.222;2023-11-19T11:17:37;101480.00;;;23.30
44429;BMP180;30134;47.866;-4.222;2023-11-19T11:20:07;101475.00;;;23.30
44429;BMP180;30134;47.866;-4.222;2023-11-19T11:28:46;101473.00;;;23.30
44429;BMP180;30134;47.866;-4.222;2023-11-19T11:37:53;101468.00;;;23.40
44429;BMP180;30134;47.866;-4.222;2023-11-19T11:40:22;101462.00;;;23.30
44429;BMP180;30134;47.866;-4.222;2023-11-19T11:42:50;101462.00;;;23.30
44429;BMP180;30134;47.866;-4.222;2023-11-19T11:45:22;101457.00;;;23.30
44429;BMP180;30134;47.866;-4.222;2023-11-19T11:48:12;101455.00;;;23.20
44429;BMP180;30134;47.866;-4.222;2023-11-19T11:50:56;101454.00;;;23.30
44429;BMP180;30134;47.866;-4.222;2023-11-19T11:53:25;101453.00;;;23.20
44429;BMP180;30134;47.866;-4.222;2023-11-19T11:55:55;101445.00;;;23.30
44429;BMP180;30134;47.866;-4.222;2023-11-19T11:58:32;101443.00;;;23.10
44429;BMP180;30134;47.866;-4.222;2023-11-19T12:01:01;101431.00;;;23.20
44429;BMP180;30134;47.866;-4.222;2023-11-19T12:03:32;101444.00;;;23.10
44429;BMP180;30134;47.866;-4.222;2023-11-19T12:06:02;101441.00;;;23.00
44429;BMP180;30134;47.866;-4.222;2023-11-19T12:08:29;101445.00;;;23.10
44429;BMP180;30134;47.866;-4.222;2023-11-19T12:11:00;101448.00;;;23.10
44429;BMP180;30134;47.866;-4.222;2023-11-19T12:14:02;101446.00;;;22.60
44429;BMP180;30134;47.866;-4.222;2023-11-19T12:16:29;101438.00;;;22.60
44429;BMP180;30134;47.866;-4.222;2023-11-19T12:19:09;101440.00;;;22.60
44429;BMP180;30134;47.866;-4.222;2023-11-19T12:21:38;101445.00;;;22.80
44429;BMP180;30134;47.866;-4.222;2023-11-19T12:24:08;101443.00;;;22.80
44429;BMP180;30134;47.866;-4.222;2023-11-19T12:26:38;101446.00;;;22.70
44429;BMP180;30134;47.866;-4.222;2023-11-19T12:29:06;101443.00;;;22.80
44429;BMP180;30134;47.866;-4.222;2023-11-19T12:31:37;101436.00;;;22.60
44429;BMP180;30134;47.866;-4.222;2023-11-19T12:34:10;101447.00;;;22.70
44429;BMP180;30134;47.866;-4.222;2023-11-19T12:36:38;101436.00;;;22.80
44429;BMP180;30134;47.866;-4.222;2023-11-19T12:39:08;101445.00;;;22.70
44429;BMP180;30134;47.866;-4.222;2023-11-19T12:41:50;101445.00;;;22.80
44429;BMP180;30134;47.866;-4.222;2023-11-19T12:44:16;101446.00;;;22.70
44429;BMP180;30134;47.866;-4.222;2023-11-19T12:46:49;101437.00;;;22.70
44429;BMP180;30134;47.866;-4.222;2023-11-19T12:49:31;101435.00;;;22.80
44429;BMP180;30134;47.866;-4.222;2023-11-19T12:51:57;101438.00;;;22.80
44429;BMP180;30134;47.866;-4.222;2023-11-19T12:54:36;101442.00;;;23.00
44429;BMP180;30134;47.866;-4.222;2023-11-19T12:57:07;101436.00;;;22.90
44429;BMP180;30134;47.866;-4.222;2023-11-19T12:59:34;101440.00;;;23.00
44429;BMP180;30134;47.866;-4.222;2023-11-19T13:02:01;101441.00;;;23.00
44429;BMP180;30134;47.866;-4.222;2023-11-19T13:04:30;101437.00;;;23.00
44429;BMP180;30134;47.866;-4.222;2023-11-19T13:07:01;101442.00;;;22.90
44429;BMP180;30134;47.866;-4.222;2023-11-19T13:09:30;101451.00;;;23.00
44429;BMP180;30134;47.866;-4.222;2023-11-19T13:12:11;101451.00;;;22.90
44429;BMP180;30134;47.866;-4.222;2023-11-19T13:14:40;101451.00;;;22.90
44429;BMP180;30134;47.866;-4.222;2023-11-19T13:17:08;101455.00;;;22.80
44429;BMP180;30134;47.866;-4.222;2023-11-19T13:19:34;101458.00;;;22.70
44429;BMP180;30134;47.866;-4.222;2023-11-19T13:22:03;101452.00;;;22.80
44429;BMP180;30134;47.866;-4.222;2023-11-19T13:24:29;101444.00;;;22.90
44429;BMP180;30134;47.866;-4.222;2023-11-19T13:26:55;101454.00;;;22.80
44429;BMP180;30134;47.866;-4.222;2023-11-19T13:29:31;101453.00;;;22.80
44429;BMP180;30134;47.866;-4.222;2023-11-19T13:32:00;101460.00;;;22.80
44429;BMP180;30134;47.866;-4.222;2023-11-19T13:34:27;101463.00;;;22.90
44429;BMP180;30134;47.866;-4.222;2023-11-19T13:36:53;101459.00;;;22.90
44429;BMP180;30134;47.866;-4.222;2023-11-19T13:39:20;101454.00;;;22.90
44429;BMP180;30134;47.866;-4.222;2023-11-19T13:41:49;101456.00;;;22.90
44429;BMP180;30134;47.866;-4.222;2023-11-19T13:44:16;101456.00;;;22.90
44429;BMP180;30134;47.866;-4.222;2023-11-19T13:46:45;101448.00;;;22.50
44429;BMP180;30134;47.866;-4.222;2023-11-19T13:49:14;101447.00;;;22.50
44429;BMP180;30134;47.866;-4.222;2023-11-19T13:51:41;101454.00;;;22.30
44429;BMP180;30134;47.866;-4.222;2023-11-19T13:54:07;101443.00;;;21.90
44429;BMP180;30134;47.866;-4.222;2023-11-19T13:56:36;101441.00;;;21.80
44429;BMP180;30134;47.866;-4.222;2023-11-19T13:59:03;101440.00;;;21.70
44429;BMP180;30134;47.866;-4.222;2023-11-19T14:01:29;101437.00;;;21.60
44429;BMP180;30134;47.866;-4.222;2023-11-19T14:06:37;101432.00;;;21.50